Time;durP1;ratioP1;P1;durP2;ratioP2;P2;SDS_P1;SDS_P2;PMS_P1;PMS_P2;Temp;Humidity;BMP_temperature;BMP_pressure;BME280_temperature;BME280_humidity;BME280_pressure;Samples;Min_cycle;Max_cycle;Signal;HPM_P1;HPM_P2
2021/12/31 00:01:56;;;;;;;2.30;1.80;;;12.60;99.90;;;;;;4992407;28;20202;-65
2021/12/31 00:04:22;;;;;;;1.77;1.60;;;12.60;99.90;;;;;;4992555;28;20172;-65
2021/12/31 00:06:48;;;;;;;2.10;1.47;;;12.60;99.90;;;;;;4992115;28;20602;-66
2021/12/31 00:09:13;;;;;;;1.90;1.47;;;12.60;99.90;;;;;;4992534;28;20178;-66
2021/12/31 00:11:39;;;;;;;1.90;1.30;;;12.60;99.90;;;;;;4992363;28;20188;-66
2021/12/31 00:14:05;;;;;;;4.40;1.63;;;12.60;99.90;;;;;;4992134;28;20203;-66
2021/12/31 00:16:30;;;;;;;2.50;1.57;;;12.50;99.90;;;;;;4992110;28;20180;-65
2021/12/31 00:18:56;;;;;;;1.93;1.80;;;12.50;99.90;;;;;;4992461;28;20249;-66
2021/12/31 00:21:21;;;;;;;1.83;1.40;;;12.50;99.90;;;;;;4992192;28;20258;-65
2021/12/31 00:23:47;;;;;;;4.77;1.70;;;12.40;99.90;;;;;;4992311;28;20172;-66
2021/12/31 00:26:12;;;;;;;1.10;1.00;;;12.40;99.90;;;;;;4991872;28;20199;-66
2021/12/31 00:28:38;;;;;;;2.37;1.87;;;12.40;99.90;;;;;;4992318;28;20537;-65
2021/12/31 00:31:04;;;;;;;3.23;1.80;;;12.30;99.90;;;;;;4992150;28;20187;-66
2021/12/31 00:33:29;;;;;;;2.27;1.73;;;12.30;99.90;;;;;;4992341;28;20198;-65
2021/12/31 00:35:55;;;;;;;2.20;1.73;;;12.30;99.90;;;;;;4992018;28;20646;-65
2021/12/31 00:38:20;;;;;;;2.50;1.67;;;12.20;99.90;;;;;;4993666;28;20251;-66
2021/12/31 00:40:46;;;;;;;1.90;1.37;;;12.30;99.90;;;;;;4995816;28;20198;-66
2021/12/31 00:43:12;;;;;;;3.23;1.97;;;12.20;99.90;;;;;;4995824;28;20176;-66
2021/12/31 00:45:40;;;;;;;4.80;1.97;;;12.20;99.90;;;;;;4995549;28;20947;-66
2021/12/31 00:48:11;;;;;;;2.00;1.80;;;12.20;99.90;;;;;;4995753;28;20461;-66
2021/12/31 00:50:37;;;;;;;2.50;1.73;;;12.10;99.90;;;;;;4995670;28;20468;-66
2021/12/31 00:53:04;;;;;;;3.60;1.70;;;12.10;99.90;;;;;;4995653;28;20920;-66
2021/12/31 00:55:29;;;;;;;1.73;1.63;;;12.10;99.90;;;;;;4995341;28;20414;-66
2021/12/31 00:57:55;;;;;;;2.37;2.00;;;12.00;99.90;;;;;;4995658;28;20949;-65
2021/12/31 01:00:20;;;;;;;2.50;2.23;;;12.00;99.90;;;;;;4995460;28;20221;-65
2021/12/31 01:02:46;;;;;;;1.57;1.43;;;11.90;99.90;;;;;;4995500;28;20255;-65
2021/12/31 01:05:13;;;;;;;3.03;1.90;;;11.90;99.90;;;;;;4995143;28;20175;-65
2021/12/31 01:07:39;;;;;;;1.70;1.60;;;11.90;99.90;;;;;;4995345;28;20199;-65
2021/12/31 01:10:05;;;;;;;2.53;1.67;;;11.80;99.90;;;;;;4995349;28;20431;-65
2021/12/31 01:12:32;;;;;;;2.50;2.30;;;11.80;99.90;;;;;;4995286;28;20423;-66
2021/12/31 01:15:02;;;;;;;3.90;1.50;;;11.70;99.90;;;;;;4994887;28;20449;-65
2021/12/31 01:17:48;;;;;;;3.40;1.57;;;11.70;99.90;;;;;;4995289;28;20429;-66
2021/12/31 01:20:15;;;;;;;4.57;2.23;;;11.70;99.90;;;;;;4994943;28;20446;-66
2021/12/31 01:22:41;;;;;;;2.30;1.93;;;11.70;99.90;;;;;;4995199;28;20441;-65
2021/12/31 01:25:08;;;;;;;2.13;1.90;;;11.60;99.90;;;;;;4994809;28;20928;-65
2021/12/31 01:27:34;;;;;;;2.23;1.27;;;11.50;99.90;;;;;;4994973;28;20291;-65
2021/12/31 01:30:01;;;;;;;2.17;1.63;;;11.50;99.90;;;;;;4994924;28;20451;-65
2021/12/31 01:32:27;;;;;;;1.50;1.40;;;11.40;99.90;;;;;;4994977;28;20422;-65
2021/12/31 01:34:52;;;;;;;1.50;1.40;;;11.40;99.90;;;;;;4994822;28;20411;-65
2021/12/31 01:37:18;;;;;;;3.23;2.20;;;11.40;99.90;;;;;;4994605;28;20222;-66
2021/12/31 01:39:43;;;;;;;1.90;1.40;;;11.30;99.90;;;;;;4994753;28;20226;-66
2021/12/31 01:42:13;;;;;;;4.73;3.53;;;11.20;99.90;;;;;;4994707;28;20235;-66
2021/12/31 01:44:43;;;;;;;4.03;1.97;;;11.20;99.90;;;;;;4994724;28;20182;-67
2021/12/31 01:47:12;;;;;;;2.10;1.87;;;11.20;99.90;;;;;;4994289;28;20459;-66
2021/12/31 01:49:54;;;;;;;3.47;2.30;;;11.20;99.90;;;;;;4994358;28;20419;-66
2021/12/31 01:52:20;;;;;;;3.13;2.10;;;11.10;99.90;;;;;;4994659;28;20498;-65
2021/12/31 01:54:46;;;;;;;2.50;2.30;;;11.10;99.90;;;;;;4994536;28;20506;-66
2021/12/31 01:57:12;;;;;;;4.57;2.73;;;11.00;99.90;;;;;;4994174;28;20176;-65
2021/12/31 01:59:38;;;;;;;2.30;2.10;;;11.00;99.90;;;;;;4994267;28;20429;-66
2021/12/31 02:02:08;;;;;;;2.70;1.53;;;10.90;99.90;;;;;;4994429;28;20207;-65
2021/12/31 02:04:37;;;;;;;3.50;2.30;;;10.90;99.90;;;;;;4994323;28;20505;-66
2021/12/31 02:07:03;;;;;;;2.13;1.93;;;10.80;99.90;;;;;;4993938;28;20454;-65
2021/12/31 02:09:35;;;;;;;2.37;2.17;;;10.80;99.90;;;;;;4994263;28;20442;-66
2021/12/31 02:12:00;;;;;;;2.97;2.60;;;10.70;99.90;;;;;;4994201;28;20418;-67
2021/12/31 02:14:27;;;;;;;3.17;2.23;;;10.70;99.90;;;;;;4993808;28;20415;-65
2021/12/31 02:16:52;;;;;;;5.40;2.00;;;10.60;99.90;;;;;;4993887;28;20426;-66
2021/12/31 02:19:26;;;;;;;2.33;1.77;;;10.60;99.90;;;;;;4994051;28;20506;-66
2021/12/31 02:21:53;;;;;;;2.17;1.90;;;10.60;99.90;;;;;;4993954;28;20232;-65
2021/12/31 02:24:21;;;;;;;3.97;2.57;;;10.50;99.90;;;;;;4993986;28;20488;-65
2021/12/31 02:26:46;;;;;;;3.10;1.87;;;10.50;99.90;;;;;;4993519;28;20459;-65
2021/12/31 02:29:12;;;;;;;2.70;2.27;;;10.50;99.90;;;;;;4993923;28;20419;-65
2021/12/31 02:31:37;;;;;;;2.33;2.13;;;10.40;99.90;;;;;;4993730;28;20251;-66
2021/12/31 02:34:03;;;;;;;2.40;1.77;;;10.40;99.90;;;;;;4993808;28;20211;-66
2021/12/31 02:36:28;;;;;;;3.30;2.47;;;10.40;99.90;;;;;;4993428;28;20214;-66
2021/12/31 02:38:54;;;;;;;2.20;2.00;;;10.40;99.90;;;;;;4993598;28;20632;-65
2021/12/31 02:41:19;;;;;;;2.30;2.03;;;10.40;99.90;;;;;;4993626;28;20206;-66
2021/12/31 02:43:45;;;;;;;2.70;1.87;;;10.30;99.90;;;;;;4993562;28;20186;-66
2021/12/31 02:46:10;;;;;;;2.13;1.93;;;10.30;99.90;;;;;;4993190;28;20226;-66
2021/12/31 02:48:36;;;;;;;2.33;2.03;;;10.30;99.90;;;;;;4993500;28;20178;-66
2021/12/31 02:51:03;;;;;;;3.10;1.90;;;10.30;99.90;;;;;;4993397;28;20196;-66
2021/12/31 02:53:36;;;;;;;3.53;1.70;;;10.30;99.90;;;;;;4993401;28;20298;-65
2021/12/31 02:56:05;;;;;;;4.97;1.77;;;10.30;99.90;;;;;;4993041;28;20415;-66
2021/12/31 02:58:32;;;;;;;3.67;2.10;;;10.20;99.90;;;;;;4993337;28;20494;-66
2021/12/31 03:00:58;;;;;;;4.23;2.50;;;10.20;99.90;;;;;;4992705;28;20485;-65
2021/12/31 03:03:24;;;;;;;2.40;1.67;;;10.20;99.90;;;;;;4993266;28;20916;-66
2021/12/31 03:05:54;;;;;;;3.37;2.30;;;10.20;99.90;;;;;;4992857;28;20167;-65
2021/12/31 03:08:31;;;;;;;2.90;2.10;;;10.20;99.90;;;;;;4993235;28;20422;-65
2021/12/31 03:11:00;;;;;;;2.20;2.00;;;10.20;99.90;;;;;;4993054;28;20442;-65
2021/12/31 03:13:28;;;;;;;2.83;1.90;;;10.20;99.90;;;;;;4992967;28;20422;-66
2021/12/31 03:15:54;;;;;;;1.93;1.77;;;10.20;99.90;;;;;;4992505;28;20477;-65
2021/12/31 03:18:20;;;;;;;3.00;1.70;;;10.20;99.90;;;;;;4993038;28;20422;-66
2021/12/31 03:21:06;;;;;;;2.37;2.13;;;10.20;99.90;;;;;;4992825;28;20454;-65
2021/12/31 03:23:32;;;;;;;4.43;1.53;;;10.20;99.90;;;;;;4993068;28;20171;-66
2021/12/31 03:25:59;;;;;;;5.87;1.90;;;10.20;99.90;;;;;;4992585;28;20993;-65
2021/12/31 03:28:25;;;;;;;2.27;1.60;;;10.10;99.90;;;;;;4992804;28;20168;-66
2021/12/31 03:30:51;;;;;;;1.97;1.30;;;10.10;99.90;;;;;;4992788;28;20430;-65
2021/12/31 03:33:17;;;;;;;1.83;1.73;;;10.10;99.90;;;;;;4992869;28;20415;-65
2021/12/31 03:35:42;;;;;;;2.23;1.40;;;10.10;99.90;;;;;;4992510;28;20421;-65
2021/12/31 03:38:09;;;;;;;3.00;1.67;;;10.00;99.90;;;;;;4992726;28;20211;-67
2021/12/31 03:40:35;;;;;;;2.10;1.90;;;10.00;99.90;;;;;;4992788;28;20323;-65
2021/12/31 03:43:00;;;;;;;1.63;1.53;;;10.00;99.90;;;;;;4992590;28;20932;-66
2021/12/31 03:45:26;;;;;;;3.93;1.73;;;9.90;99.90;;;;;;4992614;28;20171;-66
2021/12/31 03:47:52;;;;;;;2.07;1.73;;;9.90;99.90;;;;;;4992640;28;20211;-65
2021/12/31 03:50:18;;;;;;;2.53;1.57;;;9.80;99.90;;;;;;4992714;28;20442;-65
2021/12/31 03:52:43;;;;;;;2.60;1.57;;;9.80;99.90;;;;;;4992580;28;20185;-66
2021/12/31 03:55:10;;;;;;;2.50;2.00;;;9.80;99.90;;;;;;4992274;28;20570;-66
2021/12/31 03:57:39;;;;;;;1.60;1.50;;;9.70;99.90;;;;;;4992512;28;20199;-65
2021/12/31 04:00:07;;;;;;;2.20;1.60;;;9.70;99.90;;;;;;4992532;28;20446;-65
2021/12/31 04:02:33;;;;;;;2.60;1.90;;;9.70;99.90;;;;;;4992564;28;20546;-65
2021/12/31 04:04:59;;;;;;;2.00;1.60;;;9.60;99.90;;;;;;4992361;28;20423;-65
2021/12/31 04:07:24;;;;;;;4.03;2.13;;;9.70;99.90;;;;;;4992251;28;20465;-65
2021/12/31 04:09:50;;;;;;;2.27;2.07;;;9.60;99.90;;;;;;4992430;28;20179;-65
2021/12/31 04:12:16;;;;;;;7.83;2.23;;;9.60;99.90;;;;;;4992310;28;20172;-66
2021/12/31 04:14:41;;;;;;;2.83;2.20;;;9.60;99.90;;;;;;4996140;28;20176;-66
2021/12/31 04:17:07;;;;;;;3.00;1.97;;;9.60;99.90;;;;;;4996244;28;20178;-65
2021/12/31 04:19:32;;;;;;;2.37;2.17;;;9.50;99.90;;;;;;4996345;28;20626;-65
2021/12/31 04:21:58;;;;;;;3.30;1.60;;;9.50;99.90;;;;;;4996535;28;20634;-65
2021/12/31 04:27:08;;;;;;;4.30;1.70;;;9.40;99.90;;;;;;4995798;28;20210;-66
2021/12/31 04:29:34;;;;;;;3.30;2.43;;;9.30;99.90;;;;;;4996210;28;20406;-66
2021/12/31 04:32:03;;;;;;;3.90;2.30;;;9.30;99.90;;;;;;4996077;28;20190;-66
2021/12/31 04:34:29;;;;;;;2.87;1.93;;;9.20;99.90;;;;;;4996059;28;20983;-66
2021/12/31 04:36:54;;;;;;;1.90;1.60;;;9.20;99.90;;;;;;4995718;28;20410;-66
2021/12/31 04:39:20;;;;;;;5.03;1.97;;;9.20;99.90;;;;;;4995957;28;20432;-65
2021/12/31 04:41:46;;;;;;;4.67;2.37;;;9.20;99.90;;;;;;4995821;28;20673;-65
2021/12/31 04:44:12;;;;;;;1.77;1.67;;;9.20;99.90;;;;;;4995844;28;20908;-65
2021/12/31 04:46:37;;;;;;;2.37;1.63;;;9.20;99.90;;;;;;4995445;28;20227;-66
2021/12/31 04:49:06;;;;;;;2.50;2.23;;;9.20;99.90;;;;;;4995753;28;20178;-65
2021/12/31 04:51:32;;;;;;;2.30;2.07;;;9.20;99.90;;;;;;4995707;28;20188;-66
2021/12/31 04:53:57;;;;;;;7.87;2.30;;;9.20;99.90;;;;;;4995637;28;20794;-65
2021/12/31 04:56:23;;;;;;;2.13;1.90;;;9.10;99.90;;;;;;4995271;28;20180;-66
2021/12/31 04:58:48;;;;;;;6.93;2.00;;;9.00;99.90;;;;;;4995589;28;20175;-66
2021/12/31 05:01:14;;;;;;;1.80;1.70;;;9.00;99.90;;;;;;4995539;28;20716;-65
2021/12/31 05:03:40;;;;;;;3.43;2.37;;;9.00;99.90;;;;;;4995470;28;20249;-65
2021/12/31 05:06:05;;;;;;;2.70;1.83;;;9.00;99.90;;;;;;4995092;28;20171;-65
2021/12/31 05:08:31;;;;;;;2.50;1.90;;;8.90;99.90;;;;;;4995345;28;20814;-65
2021/12/31 05:10:56;;;;;;;2.57;1.87;;;9.00;99.90;;;;;;4995190;28;20289;-65
2021/12/31 05:13:22;;;;;;;2.17;1.83;;;9.00;99.90;;;;;;4995274;28;20195;-65
2021/12/31 05:15:51;;;;;;;2.20;1.90;;;9.00;99.90;;;;;;4994962;28;20172;-66
2021/12/31 05:18:17;;;;;;;2.20;1.83;;;8.90;99.90;;;;;;4995559;28;20694;-65
2021/12/31 05:20:43;;;;;;;2.60;1.90;;;8.90;99.90;;;;;;4995058;28;20512;-66
2021/12/31 05:23:09;;;;;;;2.50;1.70;;;8.90;99.90;;;;;;4994860;28;20427;-65
2021/12/31 05:25:34;;;;;;;1.57;1.47;;;8.90;99.90;;;;;;4994487;28;20167;-65
2021/12/31 05:28:00;;;;;;;2.20;2.00;;;8.90;99.90;;;;;;4994948;28;20293;-66
2021/12/31 05:30:25;;;;;;;2.30;2.10;;;8.90;99.90;;;;;;4994929;28;20192;-66
2021/12/31 05:32:51;;;;;;;2.23;2.00;;;8.80;99.90;;;;;;4995048;28;20226;-65
2021/12/31 05:35:17;;;;;;;3.23;1.83;;;8.70;99.90;;;;;;4994614;28;20258;-66
2021/12/31 05:37:43;;;;;;;1.90;1.80;;;8.70;99.90;;;;;;4994853;28;20462;-66
2021/12/31 05:40:09;;;;;;;3.90;3.60;;;8.60;99.90;;;;;;4994780;28;20466;-65
2021/12/31 05:42:34;;;;;;;4.13;2.20;;;8.60;99.90;;;;;;4994939;28;20226;-66
2021/12/31 05:45:00;;;;;;;4.00;2.40;;;8.60;99.90;;;;;;4994634;28;20418;-65
2021/12/31 05:47:25;;;;;;;5.23;2.07;;;8.60;99.90;;;;;;4994539;28;20199;-65
2021/12/31 05:49:51;;;;;;;3.17;2.07;;;8.60;99.90;;;;;;4994590;28;20172;-66
2021/12/31 05:52:17;;;;;;;2.23;2.03;;;8.70;99.90;;;;;;4994530;28;20170;-66
2021/12/31 05:54:43;;;;;;;3.00;1.93;;;8.70;99.90;;;;;;4994704;28;20410;-66
2021/12/31 05:57:09;;;;;;;2.50;1.90;;;8.70;99.90;;;;;;4994244;28;20179;-65
2021/12/31 05:59:34;;;;;;;2.07;1.90;;;8.70;99.90;;;;;;4994504;28;20422;-65
2021/12/31 06:01:59;;;;;;;2.50;2.30;;;8.60;99.90;;;;;;4994424;28;20180;-66
2021/12/31 06:04:25;;;;;;;2.00;1.90;;;8.60;99.90;;;;;;4994502;28;20226;-66
2021/12/31 06:06:50;;;;;;;4.40;2.30;;;8.70;99.90;;;;;;4993868;28;20238;-66
2021/12/31 06:09:16;;;;;;;4.03;2.23;;;8.60;99.90;;;;;;4994223;28;20176;-65
2021/12/31 06:11:42;;;;;;;2.83;2.03;;;8.60;99.90;;;;;;4994141;28;20195;-65
2021/12/31 06:14:11;;;;;;;3.20;1.80;;;8.60;99.90;;;;;;4994229;28;20183;-66
2021/12/31 06:16:42;;;;;;;3.00;1.80;;;8.50;99.90;;;;;;4993839;28;20506;-65
2021/12/31 06:19:09;;;;;;;2.50;1.90;;;8.40;99.90;;;;;;4994150;28;20446;-66
2021/12/31 06:21:37;;;;;;;2.10;1.90;;;8.40;99.90;;;;;;4993787;28;20528;-66
2021/12/31 06:24:02;;;;;;;3.87;2.03;;;8.30;99.90;;;;;;4994011;28;20415;-65
2021/12/31 06:26:28;;;;;;;4.27;2.20;;;8.30;99.90;;;;;;4993455;28;20920;-66
2021/12/31 06:28:54;;;;;;;3.23;2.73;;;8.30;99.90;;;;;;4993945;28;20164;-66
2021/12/31 06:31:19;;;;;;;2.40;1.90;;;8.40;99.90;;;;;;4993783;28;20434;-65
2021/12/31 06:33:45;;;;;;;2.13;1.77;;;8.40;99.90;;;;;;4993699;28;20176;-66
2021/12/31 06:36:10;;;;;;;2.20;1.73;;;8.50;99.90;;;;;;4992600;28;20259;-65
2021/12/31 06:38:36;;;;;;;2.40;2.23;;;8.60;99.90;;;;;;4993695;28;20224;-65
2021/12/31 06:41:01;;;;;;;3.83;2.47;;;8.60;99.90;;;;;;4993631;28;20241;-65
2021/12/31 06:43:27;;;;;;;25.67;3.27;;;8.70;99.90;;;;;;4993685;28;20182;-66
2021/12/31 06:45:53;;;;;;;2.80;2.60;;;8.80;99.90;;;;;;4993304;28;20168;-66
2021/12/31 06:48:18;;;;;;;3.83;2.23;;;8.80;99.90;;;;;;4993416;28;20204;-66
2021/12/31 06:50:44;;;;;;;5.10;2.40;;;8.70;99.90;;;;;;4993364;28;20192;-66
2021/12/31 06:53:09;;;;;;;2.90;1.93;;;8.70;99.90;;;;;;4993423;28;20177;-65
2021/12/31 06:55:35;;;;;;;2.63;2.30;;;8.60;99.90;;;;;;4993164;28;20689;-65
2021/12/31 06:58:00;;;;;;;3.27;2.67;;;8.60;99.90;;;;;;4993345;28;20195;-66
2021/12/31 07:00:26;;;;;;;5.03;2.10;;;8.60;99.90;;;;;;4993258;28;20578;-65
2021/12/31 07:03:06;;;;;;;4.40;2.53;;;8.60;99.90;;;;;;4993245;28;20606;-66
2021/12/31 07:05:32;;;;;;;3.17;1.87;;;8.70;99.90;;;;;;4993005;28;20167;-66
2021/12/31 07:07:58;;;;;;;2.50;2.30;;;8.70;99.90;;;;;;4993136;28;20516;-66
2021/12/31 07:10:23;;;;;;;2.40;2.20;;;8.70;99.90;;;;;;4993087;28;20191;-65
2021/12/31 07:12:49;;;;;;;3.10;2.80;;;8.60;99.90;;;;;;4993009;28;20167;-65
2021/12/31 07:15:14;;;;;;;3.20;2.90;;;8.60;99.90;;;;;;4992273;28;20626;-66
2021/12/31 07:17:40;;;;;;;3.20;2.87;;;8.60;99.90;;;;;;4993066;28;20167;-65
2021/12/31 07:20:07;;;;;;;2.70;2.50;;;8.60;99.90;;;;;;4992779;28;20196;-66
2021/12/31 07:22:35;;;;;;;5.23;3.40;;;8.60;99.90;;;;;;4992940;28;20790;-66
2021/12/31 07:25:01;;;;;;;7.80;3.60;;;8.60;99.90;;;;;;4992651;28;20422;-66
2021/12/31 07:27:28;;;;;;;4.83;3.63;;;8.60;99.90;;;;;;4992789;28;20978;-65
2021/12/31 07:29:54;;;;;;;4.47;3.73;;;8.60;99.90;;;;;;4992895;28;20188;-65
2021/12/31 07:32:19;;;;;;;5.87;3.27;;;8.60;99.90;;;;;;4992847;28;20771;-65
2021/12/31 07:34:45;;;;;;;4.13;3.40;;;8.50;99.90;;;;;;4992661;28;20179;-66
2021/12/31 07:37:10;;;;;;;3.77;3.47;;;8.50;99.90;;;;;;4992569;28;20176;-66
2021/12/31 07:39:45;;;;;;;4.30;3.63;;;8.50;99.90;;;;;;4992617;28;20210;-66
2021/12/31 07:42:10;;;;;;;4.80;4.37;;;8.50;99.90;;;;;;4992752;28;20246;-65
2021/12/31 07:44:36;;;;;;;7.67;4.33;;;8.60;99.90;;;;;;4992721;28;20509;-66
2021/12/31 07:47:01;;;;;;;6.57;4.93;;;8.70;99.90;;;;;;4992087;28;20673;-65
2021/12/31 07:49:27;;;;;;;5.27;4.60;;;8.70;99.90;;;;;;4993149;28;20197;-66
2021/12/31 07:51:52;;;;;;;6.80;4.73;;;8.80;99.90;;;;;;4992669;28;20218;-65
2021/12/31 07:54:18;;;;;;;8.03;6.00;;;8.90;99.90;;;;;;4992639;28;20182;-67
2021/12/31 07:56:43;;;;;;;7.50;5.13;;;9.40;99.90;;;;;;4992283;28;20545;-66
2021/12/31 07:59:09;;;;;;;9.13;7.27;;;10.10;99.90;;;;;;4992680;28;20179;-66
2021/12/31 08:01:34;;;;;;;6.40;5.07;;;10.90;99.90;;;;;;4992494;28;20199;-66
2021/12/31 08:04:00;;;;;;;5.70;5.20;;;11.60;99.90;;;;;;4992434;28;20171;-67
2021/12/31 08:06:25;;;;;;;5.97;5.37;;;12.30;99.90;;;;;;4992074;28;20199;-66
2021/12/31 08:08:51;;;;;;;5.03;4.60;;;12.80;99.90;;;;;;4992654;28;20632;-67
2021/12/31 08:11:17;;;;;;;4.50;4.10;;;13.40;99.90;;;;;;4992413;28;20188;-65
2021/12/31 08:13:42;;;;;;;5.33;4.83;;;14.30;99.90;;;;;;4992499;28;20175;-66
2021/12/31 08:16:07;;;;;;;4.83;4.43;;;15.20;99.90;;;;;;4991667;28;20178;-67
2021/12/31 08:18:33;;;;;;;5.10;4.60;;;15.90;99.90;;;;;;4992412;28;20172;-66
2021/12/31 08:20:58;;;;;;;5.20;4.70;;;16.50;99.90;;;;;;4992181;28;20222;-66
2021/12/31 08:23:24;;;;;;;5.90;5.30;;;16.70;99.90;;;;;;4992364;28;20577;-66
2021/12/31 08:25:51;;;;;;;5.30;4.80;;;17.40;99.90;;;;;;4992070;28;20176;-67
2021/12/31 08:28:17;;;;;;;6.63;5.10;;;18.20;99.90;;;;;;4992247;28;20210;-66
2021/12/31 08:30:42;;;;;;;5.67;5.20;;;18.70;99.90;;;;;;4992746;28;20942;-67
2021/12/31 08:33:08;;;;;;;5.23;4.73;;;19.00;99.90;;;;;;4992326;28;20451;-66
2021/12/31 08:35:33;;;;;;;6.43;5.83;;;19.20;99.90;;;;;;4991944;28;20660;-66
2021/12/31 08:37:59;;;;;;;6.13;5.50;;;19.30;99.90;;;;;;4992334;28;20179;-67
2021/12/31 08:40:25;;;;;;;5.00;4.50;;;19.10;99.90;;;;;;4992155;28;20323;-66
2021/12/31 08:42:51;;;;;;;6.00;5.50;;;18.90;99.90;;;;;;4992221;28;20176;-66
2021/12/31 08:45:17;;;;;;;5.20;4.60;;;18.60;99.90;;;;;;4991843;28;20823;-66
2021/12/31 08:47:42;;;;;;;5.23;4.73;;;17.70;99.90;;;;;;4992093;28;20207;-66
2021/12/31 08:50:08;;;;;;;3.73;3.43;;;17.50;99.90;;;;;;4991967;28;20438;-67
2021/12/31 08:52:34;;;;;;;4.60;4.20;;;17.50;99.90;;;;;;4992206;28;20222;-66
2021/12/31 08:54:59;;;;;;;6.13;5.53;;;17.50;99.90;;;;;;4991851;28;20517;-67
2021/12/31 08:57:25;;;;;;;5.70;4.80;;;18.00;99.90;;;;;;4991985;28;20274;-67
2021/12/31 08:59:50;;;;;;;6.00;5.50;;;18.50;99.90;;;;;;4994040;28;20682;-67
2021/12/31 09:02:16;;;;;;;5.47;4.10;;;19.30;99.90;;;;;;4995516;28;20176;-67
2021/12/31 09:04:41;;;;;;;4.57;4.10;;;19.80;99.90;;;;;;4995397;28;20194;-67
2021/12/31 09:07:07;;;;;;;5.17;4.77;;;20.40;99.90;;;;;;4995116;28;20195;-66
2021/12/31 09:09:32;;;;;;;4.87;4.13;;;19.80;99.90;;;;;;4995433;28;20634;-66
2021/12/31 09:11:58;;;;;;;5.73;5.23;;;20.30;99.90;;;;;;4995255;28;20188;-67
2021/12/31 09:14:24;;;;;;;6.57;5.77;;;21.50;99.90;;;;;;4994774;28;20656;-66
2021/12/31 09:16:50;;;;;;;6.00;5.40;;;21.20;99.90;;;;;;4995043;28;20207;-67
2021/12/31 09:19:16;;;;;;;8.17;7.37;;;22.10;99.90;;;;;;4995237;28;20505;-66
2021/12/31 09:21:41;;;;;;;7.63;6.90;;;22.90;99.90;;;;;;4994928;28;20546;-67
2021/12/31 09:24:07;;;;;;;8.90;8.03;;;21.50;99.90;;;;;;4995115;28;20207;-67
2021/12/31 09:26:33;;;;;;;5.90;5.40;;;21.20;99.90;;;;;;4994662;28;20239;-66
2021/12/31 09:28:58;;;;;;;6.93;6.40;;;21.00;99.90;;;;;;4995067;28;20176;-67
2021/12/31 09:31:24;;;;;;;5.27;4.87;;;22.00;99.90;;;;;;4994939;28;20230;-67
2021/12/31 09:33:49;;;;;;;5.70;5.30;;;22.00;99.90;;;;;;4994876;28;20582;-67
2021/12/31 09:36:15;;;;;;;5.40;5.00;;;21.50;99.90;;;;;;4994664;28;20187;-67
2021/12/31 09:38:41;;;;;;;6.33;5.20;;;20.40;99.90;;;;;;4994908;28;20172;-66
2021/12/31 09:41:07;;;;;;;6.00;5.50;;;20.70;99.90;;;;;;4994719;28;20204;-67
2021/12/31 09:43:33;;;;;;;7.00;6.47;;;20.50;99.90;;;;;;4994828;28;20172;-67
2021/12/31 09:45:58;;;;;;;6.90;6.03;;;19.50;99.90;;;;;;4994488;28;20186;-66
2021/12/31 09:48:25;;;;;;;7.17;6.60;;;19.40;99.90;;;;;;4994597;28;20466;-67
2021/12/31 09:50:54;;;;;;;4.70;4.30;;;19.00;99.90;;;;;;4994600;28;20195;-67
2021/12/31 09:53:22;;;;;;;8.97;6.43;;;19.20;99.90;;;;;;4994613;28;20433;-67
2021/12/31 09:55:55;;;;;;;7.33;6.60;;;18.40;99.90;;;;;;4994200;28;20414;-67
2021/12/31 09:58:23;;;;;;;5.97;5.47;;;18.40;99.90;;;;;;4994621;28;20497;-66
2021/12/31 10:00:52;;;;;;;7.13;6.40;;;18.20;99.90;;;;;;4994418;28;20446;-67
2021/12/31 10:03:25;;;;;;;6.50;5.90;;;18.50;99.90;;;;;;4994320;28;20427;-66
2021/12/31 10:05:52;;;;;;;5.90;5.40;;;19.50;99.90;;;;;;4994097;28;20427;-66
2021/12/31 10:08:23;;;;;;;5.60;5.17;;;20.40;99.90;;;;;;4994248;28;20466;-67
2021/12/31 10:11:12;;;;;;;5.93;5.33;;;21.20;99.90;;;;;;4994188;28;20876;-67
2021/12/31 10:13:44;;;;;;;4.97;4.57;;;21.30;99.90;;;;;;4994379;28;20422;-67
2021/12/31 10:16:23;;;;;;;5.17;4.67;;;21.20;99.90;;;;;;4993876;28;20430;-67
2021/12/31 10:18:49;;;;;;;6.27;5.77;;;21.00;99.90;;;;;;4994167;28;20430;-66
2021/12/31 10:21:19;;;;;;;6.10;5.60;;;21.20;99.90;;;;;;4994517;28;20458;-65
2021/12/31 10:23:45;;;;;;;5.90;5.40;;;21.50;99.90;;;;;;4994156;28;20415;-65
2021/12/31 10:26:17;;;;;;;8.30;6.63;;;21.40;99.90;;;;;;4993672;28;20427;-65
2021/12/31 10:28:54;;;;;;;5.70;5.10;;;21.00;99.90;;;;;;4993907;28;20164;-66
2021/12/31 10:31:20;;;;;;;5.60;5.07;;;21.60;99.90;;;;;;4993866;28;20936;-66
2021/12/31 10:33:46;;;;;;;4.77;4.37;;;22.90;99.90;;;;;;4993781;28;20427;-66
2021/12/31 10:36:37;;;;;;;4.60;4.20;;;23.90;98.20;;;;;;4993481;28;20175;-65
2021/12/31 10:39:20;;;;;;;5.13;4.73;;;25.40;95.70;;;;;;4993801;28;20419;-65
2021/12/31 10:41:51;;;;;;;5.00;4.13;;;24.90;94.00;;;;;;4993664;28;20453;-65
2021/12/31 10:44:16;;;;;;;4.27;3.90;;;25.90;93.40;;;;;;4993740;28;20430;-66
2021/12/31 10:46:42;;;;;;;4.23;3.90;;;26.70;91.00;;;;;;4993242;28;20834;-66
2021/12/31 10:49:11;;;;;;;4.47;4.17;;;27.20;89.30;;;;;;4993594;28;20305;-66
2021/12/31 10:51:46;;;;;;;5.80;5.40;;;28.20;85.60;;;;;;4993441;28;20237;-66
2021/12/31 10:54:31;;;;;;;5.00;4.60;;;28.00;80.30;;;;;;4993494;28;20505;-66
2021/12/31 10:56:59;;;;;;;4.33;3.93;;;27.40;81.10;;;;;;4993147;28;20947;-66
2021/12/31 10:59:24;;;;;;;5.10;4.80;;;28.40;78.00;;;;;;4993430;28;20426;-66
2021/12/31 11:01:51;;;;;;;6.70;5.77;;;29.00;75.30;;;;;;4993401;28;20812;-66
2021/12/31 11:04:22;;;;;;;3.67;3.37;;;29.30;72.60;;;;;;4993174;28;20207;-66
2021/12/31 11:06:49;;;;;;;4.23;3.47;;;28.40;72.40;;;;;;4992849;28;20462;-66
2021/12/31 11:09:16;;;;;;;2.67;2.47;;;26.80;74.90;;;;;;4993230;28;20510;-65
2021/12/31 11:11:43;;;;;;;4.63;4.33;;;26.00;78.00;;;;;;4993107;28;20442;-65
2021/12/31 11:14:10;;;;;;;3.73;3.43;;;25.00;79.20;;;;;;4993147;28;20565;-65
2021/12/31 11:16:39;;;;;;;4.00;3.70;;;24.10;82.40;;;;;;4992819;28;20415;-65
2021/12/31 11:19:05;;;;;;;3.50;3.27;;;25.40;82.00;;;;;;4993074;28;20478;-66
2021/12/31 11:21:32;;;;;;;3.80;3.60;;;25.80;79.60;;;;;;4992292;28;20473;-65
2021/12/31 11:24:36;;;;;;;3.00;2.80;;;26.60;78.40;;;;;;4993082;28;20890;-65
2021/12/31 11:27:28;;;;;;;3.30;3.10;;;28.60;73.90;;;;;;4992532;28;20834;-65
2021/12/31 11:29:55;;;;;;;2.77;2.57;;;30.00;69.80;;;;;;4992862;28;20419;-66
2021/12/31 11:32:47;;;;;;;3.63;3.43;;;31.20;64.40;;;;;;4992923;28;20450;-65
2021/12/31 11:35:28;;;;;;;4.40;4.00;;;29.80;64.70;;;;;;4991401;28;20450;-66
2021/12/31 11:37:54;;;;;;;3.40;3.10;;;28.30;65.80;;;;;;4992742;28;20444;-65
2021/12/31 11:40:30;;;;;;;3.47;3.17;;;28.10;66.70;;;;;;4992795;28;20859;-65
2021/12/31 11:43:15;;;;;;;3.07;2.87;;;26.90;68.70;;;;;;4992802;28;20429;-65
2021/12/31 11:45:42;;;;;;;2.87;2.67;;;27.80;69.30;;;;;;4992476;28;20426;-66
2021/12/31 11:48:48;;;;;;;4.03;2.47;;;28.10;67.00;;;;;;4992584;28;20972;-65
2021/12/31 11:51:27;;;;;;;2.80;2.60;;;27.40;67.60;;;;;;4992556;28;20901;-66
2021/12/31 11:53:55;;;;;;;3.37;3.17;;;26.20;71.40;;;;;;4992750;28;20912;-65
2021/12/31 11:56:36;;;;;;;2.70;2.50;;;26.00;72.10;;;;;;4992337;28;20410;-66
2021/12/31 11:59:07;;;;;;;2.90;2.70;;;25.70;73.60;;;;;;4992652;28;20422;-65
2021/12/31 12:01:36;;;;;;;4.83;4.43;;;25.90;73.00;;;;;;4992463;28;20430;-66
2021/12/31 12:04:24;;;;;;;3.20;2.90;;;26.50;72.90;;;;;;4992600;28;20446;-66
2021/12/31 12:06:50;;;;;;;2.63;2.43;;;27.40;70.70;;;;;;4992207;28;21127;-66
2021/12/31 12:09:16;;;;;;;2.70;2.50;;;27.60;69.20;;;;;;4992543;28;20920;-66
2021/12/31 12:12:04;;;;;;;3.20;3.00;;;26.40;70.90;;;;;;4992494;28;20445;-65
2021/12/31 12:14:43;;;;;;;2.93;2.73;;;25.30;74.10;;;;;;4992454;28;20210;-65
2021/12/31 12:17:13;;;;;;;2.60;2.40;;;24.00;77.60;;;;;;4992092;28;20423;-65
2021/12/31 12:19:50;;;;;;;2.23;2.03;;;24.40;78.80;;;;;;4992359;28;20437;-65
2021/12/31 12:22:33;;;;;;;3.00;2.80;;;26.50;74.60;;;;;;4992237;28;20497;-65
2021/12/31 12:25:07;;;;;;;2.70;2.50;;;28.30;69.90;;;;;;4992210;28;20425;-66
2021/12/31 12:27:33;;;;;;;2.73;2.53;;;27.00;70.00;;;;;;4992255;28;20461;-65
2021/12/31 12:30:02;;;;;;;3.03;2.83;;;26.40;71.80;;;;;;4992264;28;20454;-65
2021/12/31 12:35:17;;;;;;;2.63;2.43;;;25.80;75.30;;;;;;4994833;28;20450;-66
2021/12/31 12:37:56;;;;;;;2.50;2.30;;;27.00;70.80;;;;;;4996083;28;20426;-65
2021/12/31 12:40:40;;;;;;;2.20;2.10;;;29.00;68.40;;;;;;4995905;28;20448;-65
2021/12/31 12:43:17;;;;;;;4.23;2.97;;;27.90;66.70;;;;;;4995987;28;20423;-65
2021/12/31 12:45:46;;;;;;;2.93;2.63;;;27.50;68.10;;;;;;4995588;28;20845;-65
2021/12/31 12:48:11;;;;;;;4.83;4.50;;;27.80;67.80;;;;;;4995737;28;20508;-66
2021/12/31 12:50:45;;;;;;;3.90;2.83;;;29.80;65.40;;;;;;4995634;28;20438;-66
2021/12/31 12:53:21;;;;;;;2.50;2.30;;;31.90;61.40;;;;;;4995884;28;20191;-65
2021/12/31 12:55:47;;;;;;;3.10;2.90;;;31.50;59.80;;;;;;4995497;28;20426;-66
2021/12/31 12:58:22;;;;;;;3.43;2.90;;;28.30;62.40;;;;;;4995673;28;20916;-66
2021/12/31 13:00:54;;;;;;;2.63;2.43;;;26.50;67.30;;;;;;4995511;28;20819;-66